createdAt,value
2019-02-17T00:06:13.672Z,35.87
2019-02-17T00:10:34.524Z,35.00
2019-02-17T00:14:48.934Z,39.57
2019-02-17T00:19:02.843Z,35.27
2019-02-17T00:23:16.685Z,38.47
2019-02-17T00:27:31.393Z,44.07
2019-02-17T00:31:46.067Z,37.80
2019-02-17T00:35:59.867Z,34.97
2019-02-17T00:40:14.320Z,31.50
2019-02-17T00:44:28.357Z,36.73
2019-02-17T00:48:42.967Z,31.20
2019-02-17T00:52:57.729Z,35.03
2019-02-17T00:56:58.719Z,47.30
2019-02-17T01:01:19.458Z,35.93
2019-02-17T01:05:40.826Z,35.80
2019-02-17T01:09:41.801Z,35.33
2019-02-17T01:14:02.642Z,38.20
2019-02-17T01:18:16.771Z,34.80
2019-02-17T01:22:31.509Z,32.33
2019-02-17T01:26:46.379Z,36.67
2019-02-17T01:31:00.141Z,109.87
2019-02-17T01:35:14.530Z,135.40
2019-02-17T01:39:29.139Z,133.20
2019-02-17T01:43:43.588Z,85.30
2019-02-17T01:47:58.193Z,68.20
2019-02-17T01:51:59.091Z,41.90
2019-02-17T01:55:59.962Z,40.10
2019-02-17T02:00:20.716Z,29.33
2019-02-17T02:04:41.454Z,36.47
2019-02-17T02:08:42.348Z,37.37
2019-02-17T02:13:03.211Z,41.33
2019-02-17T02:17:17.113Z,39.90
2019-02-17T02:21:31.738Z,43.03
2019-02-17T02:25:46.387Z,43.70
2019-02-17T02:30:00.336Z,40.10
2019-02-17T02:34:15.062Z,43.73
2019-02-17T02:38:29.745Z,46.37
2019-02-17T02:42:44.232Z,42.37
2019-02-17T02:46:58.688Z,37.37
2019-02-17T02:51:13.252Z,41.73
2019-02-17T02:55:27.741Z,39.33
2019-02-17T02:59:52.197Z,37.83
2019-02-17T03:03:46.108Z,44.90
2019-02-17T03:08:07.807Z,41.53
2019-02-17T03:12:28.854Z,38.53
2019-02-17T03:16:29.745Z,40.53
2019-02-17T03:20:50.492Z,40.53
2019-02-17T03:25:11.507Z,40.17
2019-02-17T03:29:32.341Z,39.17
2019-02-17T03:33:53.171Z,43.27
2019-02-17T03:38:13.911Z,40.63
2019-02-17T03:42:34.727Z,36.33
2019-02-17T03:46:55.570Z,40.73
2019-02-17T03:51:16.438Z,36.20
2019-02-17T03:55:37.169Z,49.13
2019-02-17T03:59:57.890Z,43.10
2019-02-17T04:04:18.654Z,45.30
2019-02-17T04:08:19.720Z,37.37
2019-02-17T04:12:40.559Z,37.67
2019-02-17T04:16:55.019Z,39.87
2019-02-17T04:21:09.591Z,40.77
2019-02-17T04:25:10.596Z,41.30
2019-02-17T04:29:31.330Z,39.87
2019-02-17T04:33:52.056Z,37.73
2019-02-17T04:38:12.813Z,39.13
2019-02-17T04:42:33.642Z,39.90
2019-02-17T04:46:54.408Z,35.37
2019-02-17T04:51:15.148Z,41.13
2019-02-17T04:55:35.875Z,41.70
2019-02-17T04:59:56.603Z,44.10
2019-02-17T05:04:17.368Z,42.83
2019-02-17T05:08:38.203Z,40.27
2019-02-17T05:12:58.931Z,38.57
2019-02-17T05:17:13.571Z,45.33
2019-02-17T05:21:28.264Z,45.63
2019-02-17T05:25:43.004Z,39.70
2019-02-17T05:29:57.489Z,40.17
2019-02-17T05:34:12.110Z,44.00
2019-02-17T05:38:26.824Z,44.00
2019-02-17T05:42:41.245Z,35.40
2019-02-17T05:46:55.785Z,36.63
2019-02-17T05:51:10.290Z,37.03
2019-02-17T05:55:24.786Z,42.10
2019-02-17T05:59:39.228Z,35.50
2019-02-17T06:03:53.799Z,40.90
2019-02-17T06:08:08.442Z,39.47
2019-02-17T06:12:23.344Z,38.53
2019-02-17T06:16:37.478Z,36.50
2019-02-17T06:20:51.910Z,33.10
2019-02-17T06:25:06.745Z,43.40
2019-02-17T06:29:21.263Z,41.30
2019-02-17T06:33:35.909Z,38.13
2019-02-17T06:37:50.670Z,36.07
2019-02-17T06:42:05.120Z,32.83
2019-02-17T06:46:23.728Z,33.83
2019-02-17T06:50:38.345Z,31.33
2019-02-17T06:54:55.126Z,30.77
2019-02-17T06:59:09.449Z,34.37
2019-02-17T07:03:10.846Z,31.33
2019-02-17T07:07:31.791Z,29.90
2019-02-17T07:11:52.731Z,30.50
2019-02-17T07:16:08.609Z,30.83
2019-02-17T07:20:22.820Z,29.73
2019-02-17T07:24:36.540Z,33.07
2019-02-17T07:28:51.301Z,31.67
2019-02-17T07:33:05.816Z,31.30
2019-02-17T07:37:20.339Z,32.20
2019-02-17T07:41:21.243Z,31.20
2019-02-17T07:45:22.087Z,29.97
2019-02-17T07:49:22.985Z,29.63
2019-02-17T07:53:43.715Z,42.00
2019-02-17T07:58:04.464Z,32.50
2019-02-17T08:02:25.209Z,30.07
2019-02-17T08:06:45.929Z,29.10
2019-02-17T08:11:06.655Z,32.20
2019-02-17T08:15:27.414Z,35.40
2019-02-17T08:19:48.332Z,39.83
2019-02-17T08:24:09.118Z,36.97
2019-02-17T08:28:29.855Z,35.83
2019-02-17T08:32:50.629Z,32.47
2019-02-17T08:37:11.355Z,38.53
2019-02-17T08:41:32.110Z,32.90
2019-02-17T08:45:52.845Z,31.50
2019-02-17T08:50:13.725Z,33.97
2019-02-17T08:54:34.533Z,32.67
2019-02-17T08:58:55.309Z,35.10
2019-02-17T09:03:16.017Z,31.60
2019-02-17T09:07:36.807Z,32.33
2019-02-17T09:11:50.909Z,37.90
2019-02-17T09:16:05.353Z,36.97
2019-02-17T09:20:19.948Z,34.93
2019-02-17T09:24:34.575Z,31.20
2019-02-17T09:28:49.024Z,35.63
2019-02-17T09:33:03.699Z,31.20
2019-02-17T09:37:18.170Z,32.53
2019-02-17T09:41:32.870Z,36.80
2019-02-17T09:45:47.460Z,35.93
2019-02-17T09:50:02.044Z,34.33
2019-02-17T09:54:16.900Z,33.57
2019-02-17T09:58:31.175Z,34.63
2019-02-17T10:02:45.955Z,34.03
2019-02-17T10:07:00.636Z,33.93
2019-02-17T10:11:01.669Z,35.57
2019-02-17T10:15:22.410Z,34.73
2019-02-17T10:19:23.415Z,32.80
2019-02-17T10:23:44.155Z,33.47
2019-02-17T10:28:04.928Z,30.80
2019-02-17T10:32:35.975Z,33.43
2019-02-17T10:36:48.757Z,33.30
2019-02-17T10:41:09.682Z,30.87
2019-02-17T10:45:30.633Z,30.10
2019-02-17T10:49:51.387Z,31.17
2019-02-17T10:54:12.128Z,30.30
2019-02-17T10:58:33.091Z,31.97
2019-02-17T11:02:53.837Z,29.80
2019-02-17T11:07:14.667Z,28.67
2019-02-17T11:11:29.890Z,27.20
2019-02-17T11:15:43.590Z,27.73
2019-02-17T11:19:58.309Z,26.80
2019-02-17T11:24:13.266Z,25.03
2019-02-17T11:28:28.001Z,29.37
2019-02-17T11:32:42.265Z,24.27
2019-02-17T11:36:56.924Z,21.20
2019-02-17T11:41:12.657Z,23.10
2019-02-17T11:45:26.822Z,23.07
2019-02-17T11:49:41.292Z,24.93
2019-02-17T11:53:55.989Z,22.23
2019-02-17T11:58:10.572Z,24.13
2019-02-17T12:02:25.478Z,20.43
2019-02-17T12:06:39.617Z,19.87
2019-02-17T12:10:54.091Z,19.90
2019-02-17T12:15:08.701Z,19.63
2019-02-17T12:19:23.216Z,16.77
2019-02-17T12:23:39.888Z,19.27
2019-02-17T12:27:55.842Z,23.40
2019-02-17T12:32:10.639Z,17.43
2019-02-17T12:36:25.023Z,22.00
2019-02-17T12:40:39.498Z,21.33
2019-02-17T12:44:53.899Z,22.37
2019-02-17T12:49:08.372Z,25.67
2019-02-17T12:53:22.777Z,22.40
2019-02-17T12:57:37.336Z,21.67
2019-02-17T13:01:51.977Z,20.73
2019-02-17T13:06:06.756Z,22.17
2019-02-17T13:10:21.817Z,19.67
2019-02-17T13:14:36.203Z,19.17
2019-02-17T13:18:50.724Z,22.13
2019-02-17T13:23:05.466Z,22.63
2019-02-17T13:27:22.751Z,19.40
2019-02-17T13:31:36.825Z,19.77
2019-02-17T13:35:51.560Z,19.77
2019-02-17T13:40:06.011Z,19.07
2019-02-17T13:44:20.647Z,20.03
2019-02-17T13:48:22.151Z,17.20
2019-02-17T13:52:42.881Z,18.70
2019-02-17T13:57:03.890Z,18.47
2019-02-17T14:01:24.843Z,18.70
2019-02-17T14:05:45.626Z,19.10
2019-02-17T14:09:59.858Z,18.83
2019-02-17T14:14:14.524Z,15.43
2019-02-17T14:18:28.927Z,17.20
2019-02-17T14:22:43.515Z,17.60
2019-02-17T14:26:58.338Z,16.87
2019-02-17T14:31:12.777Z,17.23
2019-02-17T14:35:27.216Z,19.43
2019-02-17T14:39:41.785Z,14.33
2019-02-17T14:43:55.772Z,17.67
2019-02-17T14:47:56.867Z,14.57
2019-02-17T14:52:17.636Z,16.93
2019-02-17T14:56:38.400Z,17.33
2019-02-17T15:00:59.500Z,16.80
2019-02-17T15:05:20.396Z,17.63
2019-02-17T15:09:41.394Z,20.30
2019-02-17T15:14:02.332Z,15.30
2019-02-17T15:18:16.219Z,16.57
2019-02-17T15:22:30.942Z,14.17
2019-02-17T15:26:45.684Z,15.70
2019-02-17T15:31:00.379Z,15.07
2019-02-17T15:35:15.012Z,13.40
2019-02-17T15:39:29.745Z,15.30
2019-02-17T15:43:44.404Z,14.00
2019-02-17T15:47:58.796Z,17.30
2019-02-17T15:52:13.424Z,15.30
2019-02-17T15:56:28.071Z,14.93
2019-02-17T16:00:42.516Z,15.43
2019-02-17T16:04:57.311Z,15.40
2019-02-17T16:09:11.669Z,15.03
2019-02-17T16:13:26.459Z,15.67
2019-02-17T16:17:41.194Z,17.07
2019-02-17T16:21:55.730Z,18.43
2019-02-17T16:26:10.545Z,15.43
2019-02-17T16:30:25.156Z,18.47
2019-02-17T16:34:39.790Z,31.70
2019-02-17T16:38:54.448Z,20.27
2019-02-17T16:43:08.259Z,19.87
2019-02-17T16:47:22.855Z,24.00
2019-02-17T16:51:37.754Z,24.60
2019-02-17T16:55:52.407Z,22.03
2019-02-17T17:00:06.818Z,18.33
2019-02-17T17:04:21.385Z,14.77
2019-02-17T17:08:35.305Z,15.18
2019-02-17T17:12:36.541Z,14.50
2019-02-17T17:16:37.642Z,14.23
2019-02-17T17:20:58.445Z,16.00
2019-02-17T17:24:59.379Z,16.90
2019-02-17T17:29:20.141Z,13.37
2019-02-17T17:33:21.171Z,16.50
2019-02-17T17:37:22.115Z,14.00
2019-02-17T17:41:42.893Z,12.40
2019-02-17T17:46:03.905Z,16.20
2019-02-17T17:50:24.822Z,22.27
2019-02-17T17:54:45.883Z,20.50
2019-02-17T17:59:06.773Z,32.13
2019-02-17T18:03:27.636Z,16.97
2019-02-17T18:07:51.025Z,18.20
2019-02-17T18:12:11.901Z,20.17
2019-02-17T18:16:26.539Z,16.80
2019-02-17T18:20:41.363Z,26.97
2019-02-17T18:24:42.351Z,23.30
2019-02-17T18:28:44.654Z,17.83
2019-02-17T18:33:05.452Z,14.43
2019-02-17T18:37:26.188Z,16.70
2019-02-17T18:41:47.137Z,18.37
2019-02-17T18:46:08.139Z,17.80
2019-02-17T18:50:29.042Z,16.57
2019-02-17T18:54:49.915Z,16.70
2019-02-17T18:59:10.898Z,14.97
2019-02-17T19:03:32.698Z,15.53
2019-02-17T19:07:36.162Z,16.13
2019-02-17T19:11:57.124Z,13.17
2019-02-17T19:16:11.771Z,15.57
2019-02-17T19:20:26.515Z,13.90
2019-02-17T19:24:41.014Z,13.80
2019-02-17T19:28:54.788Z,17.00
2019-02-17T19:33:09.568Z,14.33
2019-02-17T19:37:23.614Z,14.60
2019-02-17T19:41:24.703Z,15.20
2019-02-17T19:45:45.659Z,17.00
2019-02-17T19:49:50.754Z,11.70
2019-02-17T19:54:11.655Z,13.53
2019-02-17T19:58:32.414Z,18.40
2019-02-17T20:03:13.259Z,12.10
2019-02-17T20:07:55.930Z,14.73
2019-02-17T20:12:16.768Z,12.03
2019-02-17T20:16:31.528Z,18.50
2019-02-17T20:20:46.312Z,14.10
2019-02-17T20:25:01.089Z,13.07
2019-02-17T20:29:15.414Z,14.40
2019-02-17T20:33:29.977Z,13.93
2019-02-17T20:37:45.052Z,13.37
2019-02-17T20:41:59.500Z,12.40
2019-02-17T20:46:14.276Z,17.87
2019-02-17T20:50:28.742Z,12.93
2019-02-17T20:54:42.558Z,13.53
2019-02-17T20:58:57.097Z,15.30
2019-02-17T21:03:11.530Z,13.93
2019-02-17T21:07:12.677Z,15.10
2019-02-17T21:11:27.283Z,15.73
2019-02-17T21:15:41.794Z,16.80
2019-02-17T21:19:57.684Z,16.83
2019-02-17T21:24:11.994Z,15.43
2019-02-17T21:28:26.533Z,14.87
2019-02-17T21:32:41.566Z,14.97
2019-02-17T21:36:56.138Z,16.57
2019-02-17T21:40:57.046Z,15.57
2019-02-17T21:45:17.783Z,15.40
2019-02-17T21:49:38.547Z,16.27
2019-02-17T21:53:39.491Z,15.67
2019-02-17T21:58:00.577Z,17.07
2019-02-17T22:02:21.346Z,15.73
2019-02-17T22:06:22.246Z,15.80
2019-02-17T22:11:02.961Z,15.47
2019-02-17T22:15:45.497Z,21.77
2019-02-17T22:20:01.297Z,17.93
2019-02-17T22:24:15.503Z,16.90
2019-02-17T22:28:30.188Z,17.20
2019-02-17T22:32:44.709Z,16.30
2019-02-17T22:36:59.547Z,21.87
2019-02-17T22:41:00.468Z,39.40
2019-02-17T22:45:21.807Z,39.13
2019-02-17T22:49:22.852Z,58.17
2019-02-17T22:53:44.257Z,23.07
2019-02-17T22:57:45.356Z,24.00
2019-02-17T23:01:46.437Z,27.83
2019-02-17T23:06:07.260Z,22.83
2019-02-17T23:10:28.107Z,22.50
2019-02-17T23:14:28.990Z,25.33
2019-02-17T23:18:44.597Z,70.37
2019-02-17T23:22:45.622Z,40.67
2019-02-17T23:27:06.342Z,35.10
2019-02-17T23:31:27.190Z,34.23
2019-02-17T23:35:47.915Z,30.67
2019-02-17T23:40:09.340Z,28.90
2019-02-17T23:44:10.210Z,37.53
2019-02-17T23:48:11.081Z,42.60
2019-02-17T23:52:31.990Z,32.77
2019-02-17T23:56:52.725Z,34.90
